sensor_id;sensor_type;location;lat;lon;timestamp;temperature;humidity
35240;DHT22;21376;50.954;4.716;2023-04-20T00:00:07;8.40;90.30
35240;DHT22;21376;50.954;4.716;2023-04-20T00:06:01;8.40;90.40
35240;DHT22;21376;50.954;4.716;2023-04-20T00:08:27;8.30;90.40
35240;DHT22;21376;50.954;4.716;2023-04-20T00:11:00;8.50;90.40
35240;DHT22;21376;50.954;4.716;2023-04-20T00:13:28;8.30;90.30
35240;DHT22;21376;50.954;4.716;2023-04-20T00:15:56;8.20;90.60
35240;DHT22;21376;50.954;4.716;2023-04-20T00:18:30;8.30;90.80
35240;DHT22;21376;50.954;4.716;2023-04-20T00:23:25;8.20;90.80
35240;DHT22;21376;50.954;4.716;2023-04-20T00:25:58;8.10;90.70
35240;DHT22;21376;50.954;4.716;2023-04-20T00:28:37;8.20;91.00
35240;DHT22;21376;50.954;4.716;2023-04-20T00:31:05;8.00;91.00
35240;DHT22;21376;50.954;4.716;2023-04-20T00:33:30;8.00;91.10
35240;DHT22;21376;50.954;4.716;2023-04-20T00:35:56;7.90;91.20
35240;DHT22;21376;50.954;4.716;2023-04-20T00:38:22;8.10;90.90
35240;DHT22;21376;50.954;4.716;2023-04-20T00:40:48;8.00;90.80
35240;DHT22;21376;50.954;4.716;2023-04-20T00:43:18;8.10;90.90
35240;DHT22;21376;50.954;4.716;2023-04-20T00:45:45;7.90;90.90
35240;DHT22;21376;50.954;4.716;2023-04-20T00:48:12;7.80;91.10
35240;DHT22;21376;50.954;4.716;2023-04-20T00:50:39;7.90;91.00
35240;DHT22;21376;50.954;4.716;2023-04-20T00:53:06;7.80;91.00
35240;DHT22;21376;50.954;4.716;2023-04-20T00:55:36;7.60;91.10
35240;DHT22;21376;50.954;4.716;2023-04-20T00:58:09;7.70;91.00
35240;DHT22;21376;50.954;4.716;2023-04-20T01:00:44;7.70;91.20
35240;DHT22;21376;50.954;4.716;2023-04-20T01:03:16;7.60;91.20
35240;DHT22;21376;50.954;4.716;2023-04-20T01:05:45;7.60;91.30
35240;DHT22;21376;50.954;4.716;2023-04-20T01:08:14;7.50;91.40
35240;DHT22;21376;50.954;4.716;2023-04-20T01:13:38;7.40;91.60
35240;DHT22;21376;50.954;4.716;2023-04-20T01:16:05;7.40;92.10
35240;DHT22;21376;50.954;4.716;2023-04-20T01:18:47;7.20;92.10
35240;DHT22;21376;50.954;4.716;2023-04-20T01:24:39;7.20;92.00
35240;DHT22;21376;50.954;4.716;2023-04-20T01:27:12;7.00;92.50
35240;DHT22;21376;50.954;4.716;2023-04-20T01:29:39;7.00;92.30
35240;DHT22;21376;50.954;4.716;2023-04-20T01:32:08;7.00;92.30
35240;DHT22;21376;50.954;4.716;2023-04-20T01:34:37;6.90;92.30
35240;DHT22;21376;50.954;4.716;2023-04-20T01:37:05;6.90;92.40
35240;DHT22;21376;50.954;4.716;2023-04-20T01:39:38;6.80;92.20
35240;DHT22;21376;50.954;4.716;2023-04-20T01:42:07;7.10;92.20
35240;DHT22;21376;50.954;4.716;2023-04-20T01:44:39;6.80;92.40
35240;DHT22;21376;50.954;4.716;2023-04-20T01:47:05;6.80;92.10
35240;DHT22;21376;50.954;4.716;2023-04-20T01:49:31;6.80;92.10
35240;DHT22;21376;50.954;4.716;2023-04-20T01:51:59;6.80;91.90
35240;DHT22;21376;50.954;4.716;2023-04-20T01:54:27;6.90;92.20
35240;DHT22;21376;50.954;4.716;2023-04-20T01:56:54;6.80;92.10
35240;DHT22;21376;50.954;4.716;2023-04-20T01:59:22;6.80;92.20
35240;DHT22;21376;50.954;4.716;2023-04-20T02:01:48;6.80;92.70
35240;DHT22;21376;50.954;4.716;2023-04-20T02:04:23;6.50;92.90
35240;DHT22;21376;50.954;4.716;2023-04-20T02:06:51;6.60;93.40
35240;DHT22;21376;50.954;4.716;2023-04-20T02:09:23;6.40;94.30
35240;DHT22;21376;50.954;4.716;2023-04-20T02:11:49;6.20;93.80
35240;DHT22;21376;50.954;4.716;2023-04-20T02:14:18;6.10;94.10
35240;DHT22;21376;50.954;4.716;2023-04-20T02:16:46;6.10;94.20
35240;DHT22;21376;50.954;4.716;2023-04-20T02:19:13;6.20;94.10
35240;DHT22;21376;50.954;4.716;2023-04-20T02:21:38;6.20;94.20
35240;DHT22;21376;50.954;4.716;2023-04-20T02:24:05;6.10;94.50
35240;DHT22;21376;50.954;4.716;2023-04-20T02:26:34;6.10;94.30
35240;DHT22;21376;50.954;4.716;2023-04-20T02:29:03;6.10;94.70
35240;DHT22;21376;50.954;4.716;2023-04-20T02:31:32;6.00;95.20
35240;DHT22;21376;50.954;4.716;2023-04-20T02:34:11;5.80;95.70
35240;DHT22;21376;50.954;4.716;2023-04-20T02:36:47;5.80;95.80
35240;DHT22;21376;50.954;4.716;2023-04-20T02:39:15;5.90;95.70
35240;DHT22;21376;50.954;4.716;2023-04-20T02:41:52;5.60;95.60
35240;DHT22;21376;50.954;4.716;2023-04-20T02:44:18;5.60;96.20
35240;DHT22;21376;50.954;4.716;2023-04-20T02:46:47;5.70;95.80
35240;DHT22;21376;50.954;4.716;2023-04-20T02:49:15;5.60;95.80
35240;DHT22;21376;50.954;4.716;2023-04-20T02:51:41;5.60;96.00
35240;DHT22;21376;50.954;4.716;2023-04-20T02:54:07;5.50;96.40
35240;DHT22;21376;50.954;4.716;2023-04-20T02:56:35;5.50;96.20
35240;DHT22;21376;50.954;4.716;2023-04-20T02:59:03;5.50;96.60
35240;DHT22;21376;50.954;4.716;2023-04-20T03:01:28;5.40;96.80
35240;DHT22;21376;50.954;4.716;2023-04-20T03:03:55;5.40;97.40
35240;DHT22;21376;50.954;4.716;2023-04-20T03:06:23;5.30;97.30
35240;DHT22;21376;50.954;4.716;2023-04-20T03:08:51;5.20;97.50
35240;DHT22;21376;50.954;4.716;2023-04-20T03:11:22;5.10;97.50
35240;DHT22;21376;50.954;4.716;2023-04-20T03:14:15;5.10;97.80
35240;DHT22;21376;50.954;4.716;2023-04-20T03:16:43;5.00;98.00
35240;DHT22;21376;50.954;4.716;2023-04-20T03:19:10;5.00;97.80
35240;DHT22;21376;50.954;4.716;2023-04-20T03:21:36;5.00;97.80
35240;DHT22;21376;50.954;4.716;2023-04-20T03:24:02;5.00;97.70
35240;DHT22;21376;50.954;4.716;2023-04-20T03:26:31;4.80;98.20
35240;DHT22;21376;50.954;4.716;2023-04-20T03:29:05;4.80;98.50
35240;DHT22;21376;50.954;4.716;2023-04-20T03:34:15;4.90;98.40
35240;DHT22;21376;50.954;4.716;2023-04-20T03:36:41;5.10;98.50
35240;DHT22;21376;50.954;4.716;2023-04-20T03:39:10;4.90;98.90
35240;DHT22;21376;50.954;4.716;2023-04-20T03:41:37;5.00;99.60
35240;DHT22;21376;50.954;4.716;2023-04-20T03:44:03;5.20;99.20
35240;DHT22;21376;50.954;4.716;2023-04-20T03:46:30;5.10;98.90
35240;DHT22;21376;50.954;4.716;2023-04-20T03:48:56;5.20;99.00
35240;DHT22;21376;50.954;4.716;2023-04-20T03:51:22;5.20;98.80
35240;DHT22;21376;50.954;4.716;2023-04-20T03:53:49;5.20;98.70
35240;DHT22;21376;50.954;4.716;2023-04-20T03:56:36;5.10;99.10
35240;DHT22;21376;50.954;4.716;2023-04-20T03:59:03;5.20;98.80
35240;DHT22;21376;50.954;4.716;2023-04-20T04:01:29;5.10;98.90
35240;DHT22;21376;50.954;4.716;2023-04-20T04:03:56;5.00;99.80
35240;DHT22;21376;50.954;4.716;2023-04-20T04:06:24;4.90;99.90
35240;DHT22;21376;50.954;4.716;2023-04-20T04:08:49;4.90;99.90
35240;DHT22;21376;50.954;4.716;2023-04-20T04:11:15;4.90;99.90
35240;DHT22;21376;50.954;4.716;2023-04-20T04:13:41;5.10;99.60
35240;DHT22;21376;50.954;4.716;2023-04-20T04:16:07;5.00;99.90
35240;DHT22;21376;50.954;4.716;2023-04-20T04:18:32;5.00;99.90
35240;DHT22;21376;50.954;4.716;2023-04-20T04:20:58;5.30;99.80
35240;DHT22;21376;50.954;4.716;2023-04-20T04:23:24;5.20;99.60
35240;DHT22;21376;50.954;4.716;2023-04-20T04:25:50;5.20;99.90
35240;DHT22;21376;50.954;4.716;2023-04-20T04:28:18;5.30;99.90
35240;DHT22;21376;50.954;4.716;2023-04-20T04:30:45;5.60;99.90
35240;DHT22;21376;50.954;4.716;2023-04-20T04:33:15;5.60;99.90
35240;DHT22;21376;50.954;4.716;2023-04-20T04:35:46;5.50;99.90
35240;DHT22;21376;50.954;4.716;2023-04-20T04:38:13;5.60;99.90
35240;DHT22;21376;50.954;4.716;2023-04-20T04:40:39;5.70;99.90
35240;DHT22;21376;50.954;4.716;2023-04-20T04:43:09;6.00;99.50
35240;DHT22;21376;50.954;4.716;2023-04-20T04:45:39;6.00;99.90
35240;DHT22;21376;50.954;4.716;2023-04-20T04:48:06;6.00;99.90
35240;DHT22;21376;50.954;4.716;2023-04-20T04:50:34;6.10;99.90
35240;DHT22;21376;50.954;4.716;2023-04-20T04:53:04;6.10;99.90
35240;DHT22;21376;50.954;4.716;2023-04-20T04:55:34;6.10;99.90
35240;DHT22;21376;50.954;4.716;2023-04-20T04:58:03;6.30;99.90
35240;DHT22;21376;50.954;4.716;2023-04-20T05:00:32;6.50;99.90
35240;DHT22;21376;50.954;4.716;2023-04-20T05:03:14;6.30;99.90
35240;DHT22;21376;50.954;4.716;2023-04-20T05:05:43;6.30;99.90
35240;DHT22;21376;50.954;4.716;2023-04-20T05:08:15;6.30;99.90
35240;DHT22;21376;50.954;4.716;2023-04-20T05:10:41;6.50;99.90
35240;DHT22;21376;50.954;4.716;2023-04-20T05:13:09;6.50;99.90
35240;DHT22;21376;50.954;4.716;2023-04-20T05:15:38;6.60;99.90
35240;DHT22;21376;50.954;4.716;2023-04-20T05:18:10;6.80;99.90
35240;DHT22;21376;50.954;4.716;2023-04-20T05:20:42;6.80;99.90
35240;DHT22;21376;50.954;4.716;2023-04-20T05:23:11;6.70;99.90
35240;DHT22;21376;50.954;4.716;2023-04-20T05:25:41;6.80;99.90
35240;DHT22;21376;50.954;4.716;2023-04-20T05:28:20;6.90;99.90
35240;DHT22;21376;50.954;4.716;2023-04-20T05:30:47;6.90;99.90
35240;DHT22;21376;50.954;4.716;2023-04-20T05:33:13;7.00;99.90
35240;DHT22;21376;50.954;4.716;2023-04-20T05:35:39;7.10;99.90
35240;DHT22;21376;50.954;4.716;2023-04-20T05:38:06;7.20;99.90
35240;DHT22;21376;50.954;4.716;2023-04-20T05:40:33;7.20;99.90
35240;DHT22;21376;50.954;4.716;2023-04-20T05:43:05;7.30;99.90
35240;DHT22;21376;50.954;4.716;2023-04-20T05:45:32;7.50;99.90
35240;DHT22;21376;50.954;4.716;2023-04-20T05:47:59;7.20;99.90
35240;DHT22;21376;50.954;4.716;2023-04-20T05:50:26;7.30;99.90
35240;DHT22;21376;50.954;4.716;2023-04-20T05:52:53;7.40;99.90
35240;DHT22;21376;50.954;4.716;2023-04-20T05:55:21;7.40;99.90
35240;DHT22;21376;50.954;4.716;2023-04-20T05:57:46;7.40;99.90
35240;DHT22;21376;50.954;4.716;2023-04-20T06:00:19;7.30;99.90
35240;DHT22;21376;50.954;4.716;2023-04-20T06:02:54;7.80;99.90
35240;DHT22;21376;50.954;4.716;2023-04-20T06:05:23;7.80;99.90
35240;DHT22;21376;50.954;4.716;2023-04-20T06:07:55;7.90;99.90
35240;DHT22;21376;50.954;4.716;2023-04-20T06:10:26;7.90;99.90
35240;DHT22;21376;50.954;4.716;2023-04-20T06:12:59;7.90;99.90
35240;DHT22;21376;50.954;4.716;2023-04-20T06:15:27;7.80;99.90
35240;DHT22;21376;50.954;4.716;2023-04-20T06:17:52;7.80;99.90
35240;DHT22;21376;50.954;4.716;2023-04-20T06:20:24;7.70;99.90
35240;DHT22;21376;50.954;4.716;2023-04-20T06:22:51;7.60;99.90
35240;DHT22;21376;50.954;4.716;2023-04-20T06:25:22;7.40;99.90
35240;DHT22;21376;50.954;4.716;2023-04-20T06:27:51;7.40;99.90
35240;DHT22;21376;50.954;4.716;2023-04-20T06:30:19;7.40;99.90
35240;DHT22;21376;50.954;4.716;2023-04-20T06:32:47;7.50;99.90
35240;DHT22;21376;50.954;4.716;2023-04-20T06:35:14;7.60;99.90
35240;DHT22;21376;50.954;4.716;2023-04-20T06:37:40;7.70;99.90
35240;DHT22;21376;50.954;4.716;2023-04-20T06:40:07;7.60;99.90
35240;DHT22;21376;50.954;4.716;2023-04-20T06:42:33;7.60;99.90
35240;DHT22;21376;50.954;4.716;2023-04-20T06:45:03;7.70;99.90
35240;DHT22;21376;50.954;4.716;2023-04-20T06:47:33;7.80;99.90
35240;DHT22;21376;50.954;4.716;2023-04-20T06:50:03;7.70;99.90
35240;DHT22;21376;50.954;4.716;2023-04-20T06:52:38;7.90;99.90
35240;DHT22;21376;50.954;4.716;2023-04-20T06:55:05;7.80;99.90
35240;DHT22;21376;50.954;4.716;2023-04-20T06:57:31;7.70;99.90
35240;DHT22;21376;50.954;4.716;2023-04-20T07:00:04;7.60;99.90
35240;DHT22;21376;50.954;4.716;2023-04-20T07:02:41;7.60;99.90
35240;DHT22;21376;50.954;4.716;2023-04-20T07:05:08;7.70;99.90
35240;DHT22;21376;50.954;4.716;2023-04-20T07:07:34;7.80;99.90
35240;DHT22;21376;50.954;4.716;2023-04-20T07:10:04;7.90;99.90
35240;DHT22;21376;50.954;4.716;2023-04-20T07:12:36;7.90;99.90
35240;DHT22;21376;50.954;4.716;2023-04-20T07:15:06;8.00;99.90
35240;DHT22;21376;50.954;4.716;2023-04-20T07:17:33;8.00;99.90
35240;DHT22;21376;50.954;4.716;2023-04-20T07:20:00;7.90;99.90
35240;DHT22;21376;50.954;4.716;2023-04-20T07:22:36;8.00;99.90
35240;DHT22;21376;50.954;4.716;2023-04-20T07:25:21;8.30;99.90
35240;DHT22;21376;50.954;4.716;2023-04-20T07:27:53;8.30;99.90
35240;DHT22;21376;50.954;4.716;2023-04-20T07:30:19;8.50;99.90
35240;DHT22;21376;50.954;4.716;2023-04-20T07:32:45;8.50;99.90
35240;DHT22;21376;50.954;4.716;2023-04-20T07:35:12;8.60;99.90
35240;DHT22;21376;50.954;4.716;2023-04-20T07:37:40;8.60;99.90
35240;DHT22;21376;50.954;4.716;2023-04-20T07:40:11;8.70;99.90
35240;DHT22;21376;50.954;4.716;2023-04-20T07:42:39;8.70;99.90
35240;DHT22;21376;50.954;4.716;2023-04-20T07:45:09;8.70;99.90
35240;DHT22;21376;50.954;4.716;2023-04-20T07:47:58;8.80;99.90
35240;DHT22;21376;50.954;4.716;2023-04-20T07:50:31;8.90;99.90
35240;DHT22;21376;50.954;4.716;2023-04-20T07:55:59;8.90;99.90
35240;DHT22;21376;50.954;4.716;2023-04-20T07:58:25;8.90;99.90
35240;DHT22;21376;50.954;4.716;2023-04-20T08:00:51;8.90;99.90
35240;DHT22;21376;50.954;4.716;2023-04-20T08:03:18;9.00;99.90
35240;DHT22;21376;50.954;4.716;2023-04-20T08:05:45;9.10;99.90
35240;DHT22;21376;50.954;4.716;2023-04-20T08:08:13;9.10;99.90
35240;DHT22;21376;50.954;4.716;2023-04-20T08:10:39;9.20;99.90
35240;DHT22;21376;50.954;4.716;2023-04-20T08:13:05;9.10;99.90
35240;DHT22;21376;50.954;4.716;2023-04-20T08:15:32;9.10;99.90
35240;DHT22;21376;50.954;4.716;2023-04-20T08:17:58;9.10;99.90
35240;DHT22;21376;50.954;4.716;2023-04-20T08:20:24;9.20;99.90
35240;DHT22;21376;50.954;4.716;2023-04-20T08:22:52;9.30;99.90
35240;DHT22;21376;50.954;4.716;2023-04-20T08:25:18;9.30;99.90
35240;DHT22;21376;50.954;4.716;2023-04-20T08:27:43;9.50;99.90
35240;DHT22;21376;50.954;4.716;2023-04-20T08:30:09;9.70;99.90
35240;DHT22;21376;50.954;4.716;2023-04-20T08:32:36;9.80;99.90
35240;DHT22;21376;50.954;4.716;2023-04-20T08:35:05;9.80;99.90
35240;DHT22;21376;50.954;4.716;2023-04-20T08:37:32;9.90;99.90
35240;DHT22;21376;50.954;4.716;2023-04-20T08:40:01;9.90;99.90
35240;DHT22;21376;50.954;4.716;2023-04-20T08:42:36;10.00;99.90
35240;DHT22;21376;50.954;4.716;2023-04-20T08:45:02;10.00;99.90
35240;DHT22;21376;50.954;4.716;2023-04-20T08:47:30;10.20;99.90
35240;DHT22;21376;50.954;4.716;2023-04-20T08:49:59;10.10;99.90
35240;DHT22;21376;50.954;4.716;2023-04-20T08:52:28;10.50;99.90
35240;DHT22;21376;50.954;4.716;2023-04-20T08:54:57;11.20;99.90
35240;DHT22;21376;50.954;4.716;2023-04-20T08:57:26;11.50;99.90
35240;DHT22;21376;50.954;4.716;2023-04-20T08:59:55;12.30;99.90
35240;DHT22;21376;50.954;4.716;2023-04-20T09:02:24;12.70;99.90
35240;DHT22;21376;50.954;4.716;2023-04-20T09:05:05;13.10;99.90
35240;DHT22;21376;50.954;4.716;2023-04-20T09:07:33;13.60;99.90
35240;DHT22;21376;50.954;4.716;2023-04-20T09:10:00;13.70;99.90
35240;DHT22;21376;50.954;4.716;2023-04-20T09:12:26;13.60;99.90
35240;DHT22;21376;50.954;4.716;2023-04-20T09:14:55;14.30;99.90
35240;DHT22;21376;50.954;4.716;2023-04-20T09:17:32;14.60;99.90
35240;DHT22;21376;50.954;4.716;2023-04-20T09:19:58;14.10;99.90
35240;DHT22;21376;50.954;4.716;2023-04-20T09:22:35;14.00;99.90
35240;DHT22;21376;50.954;4.716;2023-04-20T09:25:22;13.50;99.90
35240;DHT22;21376;50.954;4.716;2023-04-20T09:27:57;13.00;99.90
35240;DHT22;21376;50.954;4.716;2023-04-20T09:33:31;12.00;99.90
35240;DHT22;21376;50.954;4.716;2023-04-20T09:36:06;12.20;99.90
35240;DHT22;21376;50.954;4.716;2023-04-20T09:38:35;11.90;99.90
35240;DHT22;21376;50.954;4.716;2023-04-20T09:41:23;11.70;99.90
35240;DHT22;21376;50.954;4.716;2023-04-20T09:43:52;11.80;99.90
35240;DHT22;21376;50.954;4.716;2023-04-20T09:46:18;11.80;99.90
35240;DHT22;21376;50.954;4.716;2023-04-20T09:48:44;11.70;99.90
35240;DHT22;21376;50.954;4.716;2023-04-20T09:51:13;11.50;99.90
35240;DHT22;21376;50.954;4.716;2023-04-20T09:53:41;11.40;99.90
35240;DHT22;21376;50.954;4.716;2023-04-20T09:56:11;11.00;99.90
35240;DHT22;21376;50.954;4.716;2023-04-20T09:58:39;11.00;99.90
35240;DHT22;21376;50.954;4.716;2023-04-20T10:01:08;11.00;99.90
35240;DHT22;21376;50.954;4.716;2023-04-20T10:03:42;10.90;99.90
35240;DHT22;21376;50.954;4.716;2023-04-20T10:06:29;11.00;99.90
35240;DHT22;21376;50.954;4.716;2023-04-20T10:08:57;10.80;99.90
35240;DHT22;21376;50.954;4.716;2023-04-20T10:11:33;10.70;99.90
35240;DHT22;21376;50.954;4.716;2023-04-20T10:14:24;10.80;99.90
35240;DHT22;21376;50.954;4.716;2023-04-20T10:17:07;10.80;99.90
35240;DHT22;21376;50.954;4.716;2023-04-20T10:19:59;10.70;99.90
35240;DHT22;21376;50.954;4.716;2023-04-20T10:22:32;10.70;99.90
35240;DHT22;21376;50.954;4.716;2023-04-20T10:25:14;10.60;99.90
35240;DHT22;21376;50.954;4.716;2023-04-20T10:28:03;10.50;99.90
35240;DHT22;21376;50.954;4.716;2023-04-20T10:31:09;10.50;99.90
35240;DHT22;21376;50.954;4.716;2023-04-20T10:33:50;10.60;99.90
35240;DHT22;21376;50.954;4.716;2023-04-20T10:36:31;10.70;99.90
35240;DHT22;21376;50.954;4.716;2023-04-20T10:39:00;11.00;99.90
35240;DHT22;21376;50.954;4.716;2023-04-20T10:41:30;11.50;99.90
35240;DHT22;21376;50.954;4.716;2023-04-20T10:44:16;11.60;99.90
35240;DHT22;21376;50.954;4.716;2023-04-20T10:46:42;11.60;99.90
35240;DHT22;21376;50.954;4.716;2023-04-20T10:49:16;11.30;99.90
35240;DHT22;21376;50.954;4.716;2023-04-20T10:51:49;11.10;99.90
35240;DHT22;21376;50.954;4.716;2023-04-20T10:54:23;11.20;99.90
35240;DHT22;21376;50.954;4.716;2023-04-20T10:56:50;11.20;99.90
35240;DHT22;21376;50.954;4.716;2023-04-20T10:59:24;11.30;99.90
35240;DHT22;21376;50.954;4.716;2023-04-20T11:01:50;11.40;99.90
35240;DHT22;21376;50.954;4.716;2023-04-20T11:04:31;11.30;99.90
35240;DHT22;21376;50.954;4.716;2023-04-20T11:07:06;10.90;99.90
35240;DHT22;21376;50.954;4.716;2023-04-20T11:09:34;11.30;99.90
35240;DHT22;21376;50.954;4.716;2023-04-20T11:12:08;11.70;99.90
35240;DHT22;21376;50.954;4.716;2023-04-20T11:14:59;13.20;99.90
35240;DHT22;21376;50.954;4.716;2023-04-20T11:17:36;14.70;99.90
35240;DHT22;21376;50.954;4.716;2023-04-20T11:23:35;15.70;99.90
35240;DHT22;21376;50.954;4.716;2023-04-20T11:26:01;15.30;99.90
35240;DHT22;21376;50.954;4.716;2023-04-20T11:28:30;15.30;99.90
35240;DHT22;21376;50.954;4.716;2023-04-20T11:30:59;16.30;99.90
35240;DHT22;21376;50.954;4.716;2023-04-20T11:33:29;16.30;98.50
35240;DHT22;21376;50.954;4.716;2023-04-20T11:35:59;15.00;99.90
35240;DHT22;21376;50.954;4.716;2023-04-20T11:38:31;14.20;99.90
35240;DHT22;21376;50.954;4.716;2023-04-20T11:40:58;13.20;99.90
35240;DHT22;21376;50.954;4.716;2023-04-20T11:43:30;12.80;99.90
35240;DHT22;21376;50.954;4.716;2023-04-20T11:45:59;12.70;99.90
35240;DHT22;21376;50.954;4.716;2023-04-20T11:48:30;12.90;99.90
35240;DHT22;21376;50.954;4.716;2023-04-20T11:50:56;13.00;99.90
35240;DHT22;21376;50.954;4.716;2023-04-20T11:53:25;13.10;99.90
35240;DHT22;21376;50.954;4.716;2023-04-20T11:55:54;13.40;99.90
35240;DHT22;21376;50.954;4.716;2023-04-20T12:01:48;13.10;99.90
35240;DHT22;21376;50.954;4.716;2023-04-20T12:04:14;12.70;99.90
35240;DHT22;21376;50.954;4.716;2023-04-20T12:18:46;12.90;99.90
35240;DHT22;21376;50.954;4.716;2023-04-20T12:21:13;12.80;99.90
35240;DHT22;21376;50.954;4.716;2023-04-20T12:23:42;12.60;99.90
35240;DHT22;21376;50.954;4.716;2023-04-20T12:26:12;12.20;99.90
35240;DHT22;21376;50.954;4.716;2023-04-20T12:28:41;12.30;99.90
35240;DHT22;21376;50.954;4.716;2023-04-20T12:31:16;12.50;99.90
35240;DHT22;21376;50.954;4.716;2023-04-20T12:33:42;12.70;99.90
35240;DHT22;21376;50.954;4.716;2023-04-20T12:36:09;12.90;99.90
35240;DHT22;21376;50.954;4.716;2023-04-20T12:38:35;12.90;99.90
35240;DHT22;21376;50.954;4.716;2023-04-20T12:41:02;12.80;99.90
35240;DHT22;21376;50.954;4.716;2023-04-20T12:43:30;12.70;99.90
35240;DHT22;21376;50.954;4.716;2023-04-20T12:45:58;12.40;99.90
35240;DHT22;21376;50.954;4.716;2023-04-20T12:48:25;12.30;99.90
35240;DHT22;21376;50.954;4.716;2023-04-20T12:50:54;11.80;99.90
35240;DHT22;21376;50.954;4.716;2023-04-20T12:53:21;10.80;99.90
35240;DHT22;21376;50.954;4.716;2023-04-20T12:55:48;10.10;99.90
35240;DHT22;21376;50.954;4.716;2023-04-20T12:58:14;9.50;99.90
35240;DHT22;21376;50.954;4.716;2023-04-20T13:00:41;9.20;99.90
35240;DHT22;21376;50.954;4.716;2023-04-20T13:03:09;9.30;99.90
35240;DHT22;21376;50.954;4.716;2023-04-20T13:05:35;9.10;99.90
35240;DHT22;21376;50.954;4.716;2023-04-20T13:08:04;8.90;99.90
35240;DHT22;21376;50.954;4.716;2023-04-20T13:10:30;8.40;99.90
35240;DHT22;21376;50.954;4.716;2023-04-20T13:12:55;8.00;99.90
35240;DHT22;21376;50.954;4.716;2023-04-20T13:15:22;7.80;99.90
35240;DHT22;21376;50.954;4.716;2023-04-20T13:17:48;7.70;99.90
35240;DHT22;21376;50.954;4.716;2023-04-20T13:20:15;8.00;99.90
35240;DHT22;21376;50.954;4.716;2023-04-20T13:22:46;8.20;99.90
35240;DHT22;21376;50.954;4.716;2023-04-20T13:25:14;8.30;99.90
35240;DHT22;21376;50.954;4.716;2023-04-20T13:27:43;8.60;99.90
35240;DHT22;21376;50.954;4.716;2023-04-20T13:30:09;8.80;99.90
35240;DHT22;21376;50.954;4.716;2023-04-20T13:32:36;9.20;99.90
35240;DHT22;21376;50.954;4.716;2023-04-20T13:35:05;9.40;99.90
35240;DHT22;21376;50.954;4.716;2023-04-20T13:37:32;9.30;99.90
35240;DHT22;21376;50.954;4.716;2023-04-20T13:39:58;9.90;99.90
35240;DHT22;21376;50.954;4.716;2023-04-20T13:42:24;10.50;99.90
35240;DHT22;21376;50.954;4.716;2023-04-20T13:44:53;11.10;99.90
35240;DHT22;21376;50.954;4.716;2023-04-20T13:47:21;11.20;99.90
35240;DHT22;21376;50.954;4.716;2023-04-20T13:49:51;11.60;99.90
35240;DHT22;21376;50.954;4.716;2023-04-20T13:52:20;12.00;99.90
35240;DHT22;21376;50.954;4.716;2023-04-20T13:54:53;12.10;99.90
35240;DHT22;21376;50.954;4.716;2023-04-20T13:57:20;12.50;99.90
35240;DHT22;21376;50.954;4.716;2023-04-20T13:59:49;12.50;99.90
35240;DHT22;21376;50.954;4.716;2023-04-20T14:02:16;12.70;99.90
35240;DHT22;21376;50.954;4.716;2023-04-20T14:04:43;12.90;99.90
35240;DHT22;21376;50.954;4.716;2023-04-20T14:07:11;11.50;99.90
35240;DHT22;21376;50.954;4.716;2023-04-20T14:09:40;10.90;99.90
35240;DHT22;21376;50.954;4.716;2023-04-20T14:12:09;10.50;99.90
35240;DHT22;21376;50.954;4.716;2023-04-20T14:14:35;10.10;99.90
35240;DHT22;21376;50.954;4.716;2023-04-20T14:17:01;9.80;99.90
35240;DHT22;21376;50.954;4.716;2023-04-20T14:19:29;9.60;99.90
35240;DHT22;21376;50.954;4.716;2023-04-20T14:21:58;9.60;99.90
35240;DHT22;21376;50.954;4.716;2023-04-20T14:24:26;9.70;99.90
35240;DHT22;21376;50.954;4.716;2023-04-20T14:26:55;9.90;99.90
35240;DHT22;21376;50.954;4.716;2023-04-20T14:29:24;9.90;99.90
35240;DHT22;21376;50.954;4.716;2023-04-20T14:31:59;10.30;99.90
35240;DHT22;21376;50.954;4.716;2023-04-20T14:34:28;10.40;99.90
35240;DHT22;21376;50.954;4.716;2023-04-20T14:37:00;10.40;99.90
35240;DHT22;21376;50.954;4.716;2023-04-20T14:39:29;10.30;99.90
35240;DHT22;21376;50.954;4.716;2023-04-20T14:41:58;10.30;99.90
35240;DHT22;21376;50.954;4.716;2023-04-20T14:44:27;10.30;99.90
35240;DHT22;21376;50.954;4.716;2023-04-20T14:46:52;10.60;99.90
35240;DHT22;21376;50.954;4.716;2023-04-20T14:49:20;10.50;99.90
35240;DHT22;21376;50.954;4.716;2023-04-20T14:51:49;10.70;99.90
35240;DHT22;21376;50.954;4.716;2023-04-20T14:54:17;10.90;99.90
35240;DHT22;21376;50.954;4.716;2023-04-20T14:56:43;10.80;99.90
35240;DHT22;21376;50.954;4.716;2023-04-20T14:59:10;11.00;99.90
35240;DHT22;21376;50.954;4.716;2023-04-20T15:01:39;11.40;99.90
35240;DHT22;21376;50.954;4.716;2023-04-20T15:04:08;11.80;99.90
35240;DHT22;21376;50.954;4.716;2023-04-20T15:07:01;12.30;99.90
35240;DHT22;21376;50.954;4.716;2023-04-20T15:09:30;12.30;99.90
35240;DHT22;21376;50.954;4.716;2023-04-20T15:12:00;12.60;99.90
35240;DHT22;21376;50.954;4.716;2023-04-20T15:14:32;12.20;99.90
35240;DHT22;21376;50.954;4.716;2023-04-20T15:17:02;12.20;99.90
35240;DHT22;21376;50.954;4.716;2023-04-20T15:20:01;12.40;99.90
35240;DHT22;21376;50.954;4.716;2023-04-20T15:22:30;12.20;99.90
35240;DHT22;21376;50.954;4.716;2023-04-20T15:24:59;12.00;99.90
35240;DHT22;21376;50.954;4.716;2023-04-20T15:27:35;11.60;99.90
35240;DHT22;21376;50.954;4.716;2023-04-20T15:30:04;11.00;99.90
35240;DHT22;21376;50.954;4.716;2023-04-20T15:32:32;10.50;99.90
35240;DHT22;21376;50.954;4.716;2023-04-20T15:35:01;9.80;99.90
35240;DHT22;21376;50.954;4.716;2023-04-20T15:37:28;9.40;99.90
35240;DHT22;21376;50.954;4.716;2023-04-20T15:39:54;9.10;99.90
35240;DHT22;21376;50.954;4.716;2023-04-20T15:42:30;8.70;99.90
35240;DHT22;21376;50.954;4.716;2023-04-20T15:45:20;8.70;99.90
35240;DHT22;21376;50.954;4.716;2023-04-20T15:48:06;8.80;99.90
35240;DHT22;21376;50.954;4.716;2023-04-20T15:50:35;8.90;99.90
35240;DHT22;21376;50.954;4.716;2023-04-20T15:53:01;9.10;99.90
35240;DHT22;21376;50.954;4.716;2023-04-20T15:55:55;9.30;99.90
35240;DHT22;21376;50.954;4.716;2023-04-20T15:58:22;9.40;99.90
35240;DHT22;21376;50.954;4.716;2023-04-20T16:00:50;9.40;99.90
35240;DHT22;21376;50.954;4.716;2023-04-20T16:03:16;9.60;99.90
35240;DHT22;21376;50.954;4.716;2023-04-20T16:05:41;9.80;99.90
35240;DHT22;21376;50.954;4.716;2023-04-20T16:08:07;9.90;99.90
35240;DHT22;21376;50.954;4.716;2023-04-20T16:10:36;10.00;99.90
35240;DHT22;21376;50.954;4.716;2023-04-20T16:13:09;10.20;99.90
35240;DHT22;21376;50.954;4.716;2023-04-20T16:15:41;10.50;99.90
35240;DHT22;21376;50.954;4.716;2023-04-20T16:18:07;10.60;99.90
35240;DHT22;21376;50.954;4.716;2023-04-20T16:20:35;10.80;99.90
35240;DHT22;21376;50.954;4.716;2023-04-20T16:23:01;10.80;99.90
35240;DHT22;21376;50.954;4.716;2023-04-20T16:25:33;10.70;99.90
35240;DHT22;21376;50.954;4.716;2023-04-20T16:27:59;10.70;99.90
35240;DHT22;21376;50.954;4.716;2023-04-20T16:30:29;10.90;99.90
35240;DHT22;21376;50.954;4.716;2023-04-20T16:32:58;11.10;99.90
35240;DHT22;21376;50.954;4.716;2023-04-20T16:35:30;11.30;99.90